sensor_id;sensor_type;location;lat;lon;timestamp;pressure;altitude;pressure_sealevel;temperature;humidity
16194;BME280;8204;53.582;10.080;2023-09-19T00:01:07;99480.50;;;18.79;100.00
16194;BME280;8204;53.582;10.080;2023-09-19T00:03:36;99478.88;;;18.78;100.00
16194;BME280;8204;53.582;10.080;2023-09-19T00:06:03;99472.31;;;18.81;100.00
16194;BME280;8204;53.582;10.080;2023-09-19T00:08:31;99473.38;;;18.80;100.00
16194;BME280;8204;53.582;10.080;2023-09-19T00:10:56;99480.28;;;18.81;100.00
16194;BME280;8204;53.582;10.080;2023-09-19T00:13:23;99486.06;;;18.78;100.00
16194;BME280;8204;53.582;10.080;2023-09-19T00:15:50;99472.53;;;18.79;100.00
16194;BME280;8204;53.582;10.080;2023-09-19T00:18:20;99485.03;;;18.79;100.00
16194;BME280;8204;53.582;10.080;2023-09-19T00:20:52;99483.97;;;18.80;100.00
16194;BME280;8204;53.582;10.080;2023-09-19T00:23:18;99487.69;;;18.79;100.00
16194;BME280;8204;53.582;10.080;2023-09-19T00:25:45;99488.47;;;18.79;100.00
16194;BME280;8204;53.582;10.080;2023-09-19T00:28:10;99487.94;;;18.77;100.00
16194;BME280;8204;53.582;10.080;2023-09-19T00:30:36;99504.56;;;18.73;100.00
16194;BME280;8204;53.582;10.080;2023-09-19T00:33:04;99487.09;;;18.77;100.00
16194;BME280;8204;53.582;10.080;2023-09-19T00:35:32;99498.53;;;18.77;100.00
16194;BME280;8204;53.582;10.080;2023-09-19T00:37:58;99503.34;;;18.80;100.00
16194;BME280;8204;53.582;10.080;2023-09-19T00:40:23;99487.44;;;18.80;100.00
16194;BME280;8204;53.582;10.080;2023-09-19T00:42:49;99497.47;;;18.78;100.00
16194;BME280;8204;53.582;10.080;2023-09-19T00:45:17;99480.50;;;18.79;100.00
16194;BME280;8204;53.582;10.080;2023-09-19T00:47:44;99483.97;;;18.80;100.00
16194;BME280;8204;53.582;10.080;2023-09-19T00:50:13;99491.38;;;18.78;100.00
16194;BME280;8204;53.582;10.080;2023-09-19T00:52:42;99485.81;;;18.79;100.00
16194;BME280;8204;53.582;10.080;2023-09-19T00:55:11;99491.38;;;18.78;100.00
16194;BME280;8204;53.582;10.080;2023-09-19T00:57:38;99488.47;;;18.79;100.00
16194;BME280;8204;53.582;10.080;2023-09-19T01:00:06;99493.78;;;18.79;100.00
16194;BME280;8204;53.582;10.080;2023-09-19T01:02:34;99500.69;;;18.80;100.00
16194;BME280;8204;53.582;10.080;2023-09-19T01:05:00;99503.59;;;18.79;100.00
16194;BME280;8204;53.582;10.080;2023-09-19T01:07:27;99505.22;;;18.80;100.00
16194;BME280;8204;53.582;10.080;2023-09-19T01:09:57;99488.47;;;18.79;100.00
16194;BME280;8204;53.582;10.080;2023-09-19T01:12:32;99511.88;;;18.82;100.00
16194;BME280;8204;53.582;10.080;2023-09-19T01:15:18;99504.19;;;18.81;100.00
16194;BME280;8204;53.582;10.080;2023-09-19T01:17:52;99507.63;;;18.81;100.00
16194;BME280;8204;53.582;10.080;2023-09-19T01:23:39;99527.75;;;18.77;100.00
16194;BME280;8204;53.582;10.080;2023-09-19T01:26:24;99518.16;;;18.76;100.00
16194;BME280;8204;53.582;10.080;2023-09-19T01:29:12;99504.31;;;18.74;100.00
16194;BME280;8204;53.582;10.080;2023-09-19T01:31:44;99513.56;;;18.72;100.00
16194;BME280;8204;53.582;10.080;2023-09-19T01:34:10;99506.97;;;18.74;100.00
16194;BME280;8204;53.582;10.080;2023-09-19T01:36:37;99506.19;;;18.74;100.00
16194;BME280;8204;53.582;10.080;2023-09-19T01:39:08;99515.97;;;18.73;100.00
16194;BME280;8204;53.582;10.080;2023-09-19T01:41:58;99519.66;;;18.72;100.00
16194;BME280;8204;53.582;10.080;2023-09-19T01:44:52;99548.31;;;18.70;100.00
16194;BME280;8204;53.582;10.080;2023-09-19T01:47:33;99539.78;;;18.68;100.00
16194;BME280;8204;53.582;10.080;2023-09-19T01:50:24;99543.22;;;18.69;100.00
16194;BME280;8204;53.582;10.080;2023-09-19T01:52:57;99529.16;;;18.68;100.00
16194;BME280;8204;53.582;10.080;2023-09-19T01:55:28;99536.09;;;18.69;100.00
16194;BME280;8204;53.582;10.080;2023-09-19T01:58:01;99551.44;;;18.67;100.00
16194;BME280;8204;53.582;10.080;2023-09-19T02:00:31;99575.31;;;18.67;100.00
16194;BME280;8204;53.582;10.080;2023-09-19T02:02:58;99581.66;;;18.66;100.00
16194;BME280;8204;53.582;10.080;2023-09-19T02:05:25;99588.25;;;18.64;100.00
16194;BME280;8204;53.582;10.080;2023-09-19T02:07:54;99598.28;;;18.62;100.00
16194;BME280;8204;53.582;10.080;2023-09-19T02:10:22;99606.25;;;18.62;100.00
16194;BME280;8204;53.582;10.080;2023-09-19T02:12:48;99602.81;;;18.61;100.00
16194;BME280;8204;53.582;10.080;2023-09-19T02:15:14;99618.72;;;18.61;100.00
16194;BME280;8204;53.582;10.080;2023-09-19T02:17:42;99617.13;;;18.60;100.00
16194;BME280;8204;53.582;10.080;2023-09-19T02:20:11;99601.19;;;18.60;100.00
16194;BME280;8204;53.582;10.080;2023-09-19T02:22:43;99595.88;;;18.60;100.00
16194;BME280;8204;53.582;10.080;2023-09-19T02:25:10;99599.81;;;18.58;100.00
16194;BME280;8204;53.582;10.080;2023-09-19T02:27:36;99603.28;;;18.58;100.00
16194;BME280;8204;53.582;10.080;2023-09-19T02:30:04;99605.38;;;18.56;100.00
16194;BME280;8204;53.582;10.080;2023-09-19T02:32:32;99593.94;;;18.56;100.00
16194;BME280;8204;53.582;10.080;2023-09-19T02:35:00;99602.94;;;18.55;100.00
16194;BME280;8204;53.582;10.080;2023-09-19T02:37:26;99621.75;;;18.53;100.00
16194;BME280;8204;53.582;10.080;2023-09-19T02:39:52;99608.75;;;18.52;100.00
16194;BME280;8204;53.582;10.080;2023-09-19T02:42:18;99616.94;;;18.50;100.00
16194;BME280;8204;53.582;10.080;2023-09-19T02:44:43;99608.97;;;18.50;100.00
16194;BME280;8204;53.582;10.080;2023-09-19T02:47:12;99626.72;;;18.50;100.00
16194;BME280;8204;53.582;10.080;2023-09-19T02:49:38;99622.69;;;18.47;100.00
16194;BME280;8204;53.582;10.080;2023-09-19T02:52:03;99631.69;;;18.46;100.00
16194;BME280;8204;53.582;10.080;2023-09-19T02:54:29;99630.31;;;18.44;100.00
16194;BME280;8204;53.582;10.080;2023-09-19T02:56:54;99623.19;;;18.44;100.00
16194;BME280;8204;53.582;10.080;2023-09-19T02:59:21;99635.19;;;18.47;100.00
16194;BME280;8204;53.582;10.080;2023-09-19T03:01:46;99634.59;;;18.45;100.00
16194;BME280;8204;53.582;10.080;2023-09-19T03:04:14;99644.41;;;18.44;100.00
16194;BME280;8204;53.582;10.080;2023-09-19T03:06:43;99624.22;;;18.43;100.00
16194;BME280;8204;53.582;10.080;2023-09-19T03:09:10;99615.44;;;18.43;100.00
16194;BME280;8204;53.582;10.080;2023-09-19T03:11:36;99622.63;;;18.42;100.00
16194;BME280;8204;53.582;10.080;2023-09-19T03:14:02;99632.66;;;18.40;100.00
16194;BME280;8204;53.582;10.080;2023-09-19T03:16:28;99650.97;;;18.42;100.00
16194;BME280;8204;53.582;10.080;2023-09-19T03:18:54;99654.44;;;18.42;100.00
16194;BME280;8204;53.582;10.080;2023-09-19T03:21:20;99678.78;;;18.39;100.00
16194;BME280;8204;53.582;10.080;2023-09-19T03:23:47;99695.97;;;18.37;100.00
16194;BME280;8204;53.582;10.080;2023-09-19T03:26:13;99687.47;;;18.35;100.00
16194;BME280;8204;53.582;10.080;2023-09-19T03:28:40;99701.75;;;18.34;100.00
16194;BME280;8204;53.582;10.080;2023-09-19T03:31:07;99690.31;;;18.33;100.00
16194;BME280;8204;53.582;10.080;2023-09-19T03:33:32;99696.13;;;18.31;100.00
16194;BME280;8204;53.582;10.080;2023-09-19T03:35:59;99691.84;;;18.30;100.00
16194;BME280;8204;53.582;10.080;2023-09-19T03:38:27;99695.53;;;18.29;100.00
16194;BME280;8204;53.582;10.080;2023-09-19T03:40:53;99715.13;;;18.28;100.00
16194;BME280;8204;53.582;10.080;2023-09-19T03:43:18;99716.16;;;18.27;100.00
16194;BME280;8204;53.582;10.080;2023-09-19T03:45:44;99719.84;;;18.26;100.00
16194;BME280;8204;53.582;10.080;2023-09-19T03:48:10;99737.38;;;18.27;100.00
16194;BME280;8204;53.582;10.080;2023-09-19T03:50:36;99739.47;;;18.25;100.00
16194;BME280;8204;53.582;10.080;2023-09-19T03:53:02;99760.34;;;18.21;100.00
16194;BME280;8204;53.582;10.080;2023-09-19T03:55:28;99768.50;;;18.20;100.00
16194;BME280;8204;53.582;10.080;2023-09-19T03:57:55;99784.88;;;18.17;100.00
16194;BME280;8204;53.582;10.080;2023-09-19T04:00:21;99840.44;;;18.12;100.00
16194;BME280;8204;53.582;10.080;2023-09-19T04:02:49;99888.50;;;18.04;100.00
16194;BME280;8204;53.582;10.080;2023-09-19T04:05:14;99902.19;;;18.01;100.00
16194;BME280;8204;53.582;10.080;2023-09-19T04:07:40;99924.66;;;17.98;100.00
16194;BME280;8204;53.582;10.080;2023-09-19T04:10:06;99948.63;;;17.92;100.00
16194;BME280;8204;53.582;10.080;2023-09-19T04:12:34;99983.16;;;17.85;100.00
16194;BME280;8204;53.582;10.080;2023-09-19T04:14:59;99967.91;;;17.81;100.00
16194;BME280;8204;53.582;10.080;2023-09-19T04:17:25;99975.50;;;17.77;100.00
16194;BME280;8204;53.582;10.080;2023-09-19T04:19:51;100012.47;;;17.72;100.00
16194;BME280;8204;53.582;10.080;2023-09-19T04:22:17;100006.56;;;17.70;100.00
16194;BME280;8204;53.582;10.080;2023-09-19T04:24:42;100023.16;;;17.66;100.00
16194;BME280;8204;53.582;10.080;2023-09-19T04:27:08;100039.94;;;17.60;100.00
16194;BME280;8204;53.582;10.080;2023-09-19T04:29:35;100051.63;;;17.53;100.00
16194;BME280;8204;53.582;10.080;2023-09-19T04:32:01;100057.94;;;17.52;100.00
16194;BME280;8204;53.582;10.080;2023-09-19T04:34:30;100062.88;;;17.48;100.00
16194;BME280;8204;53.582;10.080;2023-09-19T04:36:55;100064.94;;;17.46;100.00
16194;BME280;8204;53.582;10.080;2023-09-19T04:39:23;100072.53;;;17.43;100.00
16194;BME280;8204;53.582;10.080;2023-09-19T04:41:51;100077.22;;;17.41;100.00
16194;BME280;8204;53.582;10.080;2023-09-19T04:44:16;100045.50;;;17.34;100.00
16194;BME280;8204;53.582;10.080;2023-09-19T04:46:42;100060.34;;;17.35;100.00
16194;BME280;8204;53.582;10.080;2023-09-19T04:49:07;100045.72;;;17.33;100.00
16194;BME280;8204;53.582;10.080;2023-09-19T04:51:33;100055.94;;;17.29;100.00
16194;BME280;8204;53.582;10.080;2023-09-19T04:54:01;100053.28;;;17.29;100.00
16194;BME280;8204;53.582;10.080;2023-09-19T04:56:29;100044.75;;;17.27;100.00
16194;BME280;8204;53.582;10.080;2023-09-19T04:58:54;100064.47;;;17.25;100.00
16194;BME280;8204;53.582;10.080;2023-09-19T05:01:20;100053.50;;;17.21;100.00
16194;BME280;8204;53.582;10.080;2023-09-19T05:03:48;100047.66;;;17.19;100.00
16194;BME280;8204;53.582;10.080;2023-09-19T05:06:21;100050.88;;;17.21;100.00
16194;BME280;8204;53.582;10.080;2023-09-19T05:08:47;100045.78;;;17.20;100.00
16194;BME280;8204;53.582;10.080;2023-09-19T05:11:17;100049.28;;;17.20;100.00
16194;BME280;8204;53.582;10.080;2023-09-19T05:13:43;100053.16;;;17.18;100.00
16194;BME280;8204;53.582;10.080;2023-09-19T05:16:08;100059.69;;;17.15;100.00
16194;BME280;8204;53.582;10.080;2023-09-19T05:18:36;100066.66;;;17.10;100.00
16194;BME280;8204;53.582;10.080;2023-09-19T05:21:02;100059.75;;;17.09;100.00
16194;BME280;8204;53.582;10.080;2023-09-19T05:23:27;100065.03;;;17.09;100.00
16194;BME280;8204;53.582;10.080;2023-09-19T05:25:53;100056.50;;;17.07;100.00
16194;BME280;8204;53.582;10.080;2023-09-19T05:28:20;100051.44;;;17.05;100.00
16194;BME280;8204;53.582;10.080;2023-09-19T05:30:45;100037.41;;;17.05;100.00
16194;BME280;8204;53.582;10.080;2023-09-19T05:33:13;100050.81;;;17.03;100.00
16194;BME280;8204;53.582;10.080;2023-09-19T05:35:39;100032.75;;;17.00;100.00
16194;BME280;8204;53.582;10.080;2023-09-19T05:38:07;100034.56;;;17.00;100.00
16194;BME280;8204;53.582;10.080;2023-09-19T05:40:38;100036.63;;;16.98;100.00
16194;BME280;8204;53.582;10.080;2023-09-19T05:43:06;100038.69;;;16.96;100.00
16194;BME280;8204;53.582;10.080;2023-09-19T05:45:32;100036.25;;;16.94;100.00
16194;BME280;8204;53.582;10.080;2023-09-19T05:48:07;100024.06;;;16.93;100.00
16194;BME280;8204;53.582;10.080;2023-09-19T05:50:33;100031.38;;;16.91;100.00
16194;BME280;8204;53.582;10.080;2023-09-19T05:52:59;100043.00;;;16.90;100.00
16194;BME280;8204;53.582;10.080;2023-09-19T05:55:24;100044.41;;;16.93;100.00
16194;BME280;8204;53.582;10.080;2023-09-19T05:57:51;100049.50;;;16.94;100.00
16194;BME280;8204;53.582;10.080;2023-09-19T06:00:22;100064.78;;;16.92;100.00
16194;BME280;8204;53.582;10.080;2023-09-19T06:02:52;100070.06;;;16.92;100.00
16194;BME280;8204;53.582;10.080;2023-09-19T06:05:18;100050.91;;;16.97;100.00
16194;BME280;8204;53.582;10.080;2023-09-19T06:07:43;100077.38;;;16.97;100.00
16194;BME280;8204;53.582;10.080;2023-09-19T06:10:09;100056.38;;;16.95;100.00
16194;BME280;8204;53.582;10.080;2023-09-19T06:12:44;100068.78;;;17.01;100.00
16194;BME280;8204;53.582;10.080;2023-09-19T06:15:11;100063.50;;;17.01;100.00
16194;BME280;8204;53.582;10.080;2023-09-19T06:17:47;100050.41;;;17.06;100.00
16194;BME280;8204;53.582;10.080;2023-09-19T06:20:14;100058.50;;;17.11;100.00
16194;BME280;8204;53.582;10.080;2023-09-19T06:22:41;100050.94;;;17.15;100.00
16194;BME280;8204;53.582;10.080;2023-09-19T06:25:09;100063.97;;;17.16;100.00
16194;BME280;8204;53.582;10.080;2023-09-19T06:27:37;100065.16;;;17.20;100.00
16194;BME280;8204;53.582;10.080;2023-09-19T06:30:02;100084.88;;;17.24;100.00
16194;BME280;8204;53.582;10.080;2023-09-19T06:32:28;100088.75;;;17.22;100.00
16194;BME280;8204;53.582;10.080;2023-09-19T06:34:54;100092.59;;;17.26;100.00
16194;BME280;8204;53.582;10.080;2023-09-19T06:37:20;100094.63;;;17.30;100.00
16194;BME280;8204;53.582;10.080;2023-09-19T06:39:46;100087.06;;;17.34;100.00
16194;BME280;8204;53.582;10.080;2023-09-19T06:42:13;100110.47;;;17.37;100.00
16194;BME280;8204;53.582;10.080;2023-09-19T06:44:39;100119.59;;;17.41;100.00
16194;BME280;8204;53.582;10.080;2023-09-19T06:47:04;100121.00;;;17.43;100.00
16194;BME280;8204;53.582;10.080;2023-09-19T06:49:31;100104.31;;;17.43;100.00
16194;BME280;8204;53.582;10.080;2023-09-19T06:51:56;100115.06;;;17.48;100.00
16194;BME280;8204;53.582;10.080;2023-09-19T06:54:22;100112.78;;;17.51;100.00
16194;BME280;8204;53.582;10.080;2023-09-19T06:56:48;100114.97;;;17.54;100.00
16194;BME280;8204;53.582;10.080;2023-09-19T06:59:13;100126.78;;;17.58;100.00
16194;BME280;8204;53.582;10.080;2023-09-19T07:01:40;100122.44;;;17.63;100.00
16194;BME280;8204;53.582;10.080;2023-09-19T07:04:06;100120.38;;;17.65;100.00
16194;BME280;8204;53.582;10.080;2023-09-19T07:06:32;100129.53;;;17.69;100.00
16194;BME280;8204;53.582;10.080;2023-09-19T07:08:58;100159.47;;;17.70;100.00
16194;BME280;8204;53.582;10.080;2023-09-19T07:11:23;100179.19;;;17.74;100.00
16194;BME280;8204;53.582;10.080;2023-09-19T07:13:49;100184.31;;;17.75;100.00
16194;BME280;8204;53.582;10.080;2023-09-19T07:16:15;100186.72;;;17.77;100.00
16194;BME280;8204;53.582;10.080;2023-09-19T07:18:53;100189.38;;;17.77;100.00
16194;BME280;8204;53.582;10.080;2023-09-19T07:21:20;100179.56;;;17.77;100.00
16194;BME280;8204;53.582;10.080;2023-09-19T07:23:47;100191.81;;;17.78;100.00
16194;BME280;8204;53.582;10.080;2023-09-19T07:26:12;100180.19;;;17.79;100.00
16194;BME280;8204;53.582;10.080;2023-09-19T07:28:37;100190.34;;;17.82;100.00
16194;BME280;8204;53.582;10.080;2023-09-19T07:31:03;100191.75;;;17.85;100.00
16194;BME280;8204;53.582;10.080;2023-09-19T07:33:30;100197.63;;;17.87;100.00
16194;BME280;8204;53.582;10.080;2023-09-19T07:35:55;100185.34;;;17.92;100.00
16194;BME280;8204;53.582;10.080;2023-09-19T07:38:21;100188.22;;;17.91;100.00
16194;BME280;8204;53.582;10.080;2023-09-19T07:40:48;100193.91;;;17.94;100.00
16194;BME280;8204;53.582;10.080;2023-09-19T07:43:13;100201.41;;;17.97;100.00
16194;BME280;8204;53.582;10.080;2023-09-19T07:45:39;100202.81;;;18.00;100.00
16194;BME280;8204;53.582;10.080;2023-09-19T07:48:05;100196.28;;;18.02;100.00
16194;BME280;8204;53.582;10.080;2023-09-19T07:50:34;100199.50;;;18.04;100.00
16194;BME280;8204;53.582;10.080;2023-09-19T07:53:02;100192.94;;;18.07;100.00
16194;BME280;8204;53.582;10.080;2023-09-19T07:55:30;100217.88;;;18.06;100.00
16194;BME280;8204;53.582;10.080;2023-09-19T07:57:55;100231.31;;;18.04;100.00
16194;BME280;8204;53.582;10.080;2023-09-19T08:00:21;100233.81;;;17.99;100.00
16194;BME280;8204;53.582;10.080;2023-09-19T08:02:47;100180.00;;;17.99;100.00
16194;BME280;8204;53.582;10.080;2023-09-19T08:05:13;100170.84;;;17.95;100.00
16194;BME280;8204;53.582;10.080;2023-09-19T08:07:43;100190.50;;;17.87;100.00
16194;BME280;8204;53.582;10.080;2023-09-19T08:10:11;100198.09;;;17.84;100.00
16194;BME280;8204;53.582;10.080;2023-09-19T08:12:41;100196.09;;;17.79;100.00
16194;BME280;8204;53.582;10.080;2023-09-19T08:15:18;100218.94;;;17.74;100.00
16194;BME280;8204;53.582;10.080;2023-09-19T08:17:48;100220.59;;;17.75;100.00
16194;BME280;8204;53.582;10.080;2023-09-19T08:20:14;100222.66;;;17.73;100.00
16194;BME280;8204;53.582;10.080;2023-09-19T08:22:44;100245.91;;;17.71;100.00
16194;BME280;8204;53.582;10.080;2023-09-19T08:25:11;100227.97;;;17.73;100.00
16194;BME280;8204;53.582;10.080;2023-09-19T08:27:37;100231.19;;;17.75;100.00
16194;BME280;8204;53.582;10.080;2023-09-19T08:30:02;100249.53;;;17.76;100.00
16194;BME280;8204;53.582;10.080;2023-09-19T08:32:29;100235.03;;;17.79;100.00
16194;BME280;8204;53.582;10.080;2023-09-19T08:34:54;100235.19;;;17.84;100.00
16194;BME280;8204;53.582;10.080;2023-09-19T08:37:20;100231.06;;;17.88;100.00
16194;BME280;8204;53.582;10.080;2023-09-19T08:39:45;100244.06;;;17.96;100.00
16194;BME280;8204;53.582;10.080;2023-09-19T08:42:11;100263.22;;;17.98;100.00
16194;BME280;8204;53.582;10.080;2023-09-19T08:44:38;100270.94;;;17.99;100.00
16194;BME280;8204;53.582;10.080;2023-09-19T08:47:15;100281.78;;;17.98;100.00
16194;BME280;8204;53.582;10.080;2023-09-19T08:52:28;100282.72;;;18.03;100.00
16194;BME280;8204;53.582;10.080;2023-09-19T08:54:59;100267.19;;;18.07;100.00
16194;BME280;8204;53.582;10.080;2023-09-19T08:57:33;100259.41;;;18.12;100.00
16194;BME280;8204;53.582;10.080;2023-09-19T09:00:02;100259.34;;;18.18;100.00
16194;BME280;8204;53.582;10.080;2023-09-19T09:02:30;100271.97;;;18.23;100.00
16194;BME280;8204;53.582;10.080;2023-09-19T09:05:00;100274.19;;;18.26;100.00
16194;BME280;8204;53.582;10.080;2023-09-19T09:07:26;100273.75;;;18.29;100.00
16194;BME280;8204;53.582;10.080;2023-09-19T09:09:53;100275.16;;;18.31;100.00
16194;BME280;8204;53.582;10.080;2023-09-19T09:12:19;100288.56;;;18.36;100.00
16194;BME280;8204;53.582;10.080;2023-09-19T09:14:46;100285.91;;;18.36;100.00
16194;BME280;8204;53.582;10.080;2023-09-19T09:17:16;100291.41;;;18.41;100.00
16194;BME280;8204;53.582;10.080;2023-09-19T09:19:46;100302.81;;;18.41;100.00
16194;BME280;8204;53.582;10.080;2023-09-19T09:22:12;100305.22;;;18.43;100.00
16194;BME280;8204;53.582;10.080;2023-09-19T09:24:51;100297.66;;;18.46;100.00
16194;BME280;8204;53.582;10.080;2023-09-19T09:27:19;100319.47;;;18.48;100.00
16194;BME280;8204;53.582;10.080;2023-09-19T09:29:47;100307.84;;;18.49;100.00
16194;BME280;8204;53.582;10.080;2023-09-19T09:34:49;100305.47;;;18.59;100.00
16194;BME280;8204;53.582;10.080;2023-09-19T09:37:16;100303.56;;;18.66;100.00
16194;BME280;8204;53.582;10.080;2023-09-19T09:39:55;100312.25;;;18.73;100.00
16194;BME280;8204;53.582;10.080;2023-09-19T09:42:30;100342.06;;;18.75;100.00
16194;BME280;8204;53.582;10.080;2023-09-19T09:45:14;100345.47;;;18.82;100.00
16194;BME280;8204;53.582;10.080;2023-09-19T09:47:43;100344.56;;;18.88;100.00
16194;BME280;8204;53.582;10.080;2023-09-19T09:50:24;100350.50;;;18.90;100.00
16194;BME280;8204;53.582;10.080;2023-09-19T09:52:54;100357.34;;;18.98;100.00
16194;BME280;8204;53.582;10.080;2023-09-19T09:55:26;100374.66;;;19.00;100.00
16194;BME280;8204;53.582;10.080;2023-09-19T09:58:17;100369.97;;;19.02;100.00
16194;BME280;8204;53.582;10.080;2023-09-19T10:00:53;100381.34;;;19.09;100.00
16194;BME280;8204;53.582;10.080;2023-09-19T10:03:38;100396.41;;;19.15;100.00
16194;BME280;8204;53.582;10.080;2023-09-19T10:06:07;100388.13;;;19.23;100.00
16194;BME280;8204;53.582;10.080;2023-09-19T10:09:06;100387.81;;;19.31;100.00
16194;BME280;8204;53.582;10.080;2023-09-19T10:11:32;100387.28;;;19.40;100.00
16194;BME280;8204;53.582;10.080;2023-09-19T10:14:00;100385.16;;;19.49;100.00
16194;BME280;8204;53.582;10.080;2023-09-19T10:16:32;100406.09;;;19.57;100.00
16194;BME280;8204;53.582;10.080;2023-09-19T10:19:02;100411.69;;;19.67;100.00
16194;BME280;8204;53.582;10.080;2023-09-19T10:21:30;100401.19;;;19.72;100.00
16194;BME280;8204;53.582;10.080;2023-09-19T10:23:58;100418.66;;;19.79;100.00
16194;BME280;8204;53.582;10.080;2023-09-19T10:26:26;100425.53;;;19.86;100.00
16194;BME280;8204;53.582;10.080;2023-09-19T10:28:56;100425.25;;;19.94;100.00
16194;BME280;8204;53.582;10.080;2023-09-19T10:31:27;100429.66;;;20.00;100.00
16194;BME280;8204;53.582;10.080;2023-09-19T10:33:55;100428.41;;;20.03;100.00
16194;BME280;8204;53.582;10.080;2023-09-19T10:36:26;100424.00;;;20.08;100.00
16194;BME280;8204;53.582;10.080;2023-09-19T10:38:54;100440.69;;;20.15;100.00
16194;BME280;8204;53.582;10.080;2023-09-19T10:41:23;100441.75;;;20.14;100.00
16194;BME280;8204;53.582;10.080;2023-09-19T10:43:50;100417.81;;;20.14;100.00
16194;BME280;8204;53.582;10.080;2023-09-19T10:46:19;100425.31;;;20.17;100.00
16194;BME280;8204;53.582;10.080;2023-09-19T10:48:44;100438.53;;;20.24;100.00
16194;BME280;8204;53.582;10.080;2023-09-19T10:51:20;100464.78;;;20.20;100.00
16194;BME280;8204;53.582;10.080;2023-09-19T10:53:54;100444.28;;;20.21;100.00
16194;BME280;8204;53.582;10.080;2023-09-19T10:56:34;100450.22;;;20.23;100.00
16194;BME280;8204;53.582;10.080;2023-09-19T11:01:43;100445.56;;;20.18;100.00
16194;BME280;8204;53.582;10.080;2023-09-19T11:04:33;100448.59;;;20.22;100.00
16194;BME280;8204;53.582;10.080;2023-09-19T11:07:07;100453.22;;;20.26;100.00
16194;BME280;8204;53.582;10.080;2023-09-19T11:15:08;100445.59;;;20.41;100.00
16194;BME280;8204;53.582;10.080;2023-09-19T11:17:43;100450.25;;;20.46;100.00
16194;BME280;8204;53.582;10.080;2023-09-19T11:30:47;100456.41;;;20.46;100.00
16194;BME280;8204;53.582;10.080;2023-09-19T11:33:29;100452.69;;;20.47;100.00
16194;BME280;8204;53.582;10.080;2023-09-19T11:36:10;100451.44;;;20.50;100.00
16194;BME280;8204;53.582;10.080;2023-09-19T11:46:29;100456.41;;;20.46;100.00
16194;BME280;8204;53.582;10.080;2023-09-19T11:49:06;100473.16;;;20.47;100.00
16194;BME280;8204;53.582;10.080;2023-09-19T11:51:43;100449.09;;;20.42;100.00
16194;BME280;8204;53.582;10.080;2023-09-19T11:54:11;100457.66;;;20.44;100.00
16194;BME280;8204;53.582;10.080;2023-09-19T11:56:50;100456.41;;;20.46;100.00
16194;BME280;8204;53.582;10.080;2023-09-19T11:59:38;100459.53;;;20.54;100.00
16194;BME280;8204;53.582;10.080;2023-09-19T12:02:05;100461.88;;;20.62;100.00
16194;BME280;8204;53.582;10.080;2023-09-19T12:04:39;100465.44;;;20.68;100.00
16194;BME280;8204;53.582;10.080;2023-09-19T12:07:12;100443.81;;;20.76;100.00
16194;BME280;8204;53.582;10.080;2023-09-19T12:09:45;100465.84;;;20.83;100.00
16194;BME280;8204;53.582;10.080;2023-09-19T12:12:19;100446.75;;;20.86;100.00
16194;BME280;8204;53.582;10.080;2023-09-19T12:14:49;100450.78;;;20.88;100.00
16194;BME280;8204;53.582;10.080;2023-09-19T12:17:14;100456.91;;;20.89;100.00
16194;BME280;8204;53.582;10.080;2023-09-19T12:19:52;100462.72;;;20.86;100.00
16194;BME280;8204;53.582;10.080;2023-09-19T12:22:18;100458.78;;;20.88;100.00
16194;BME280;8204;53.582;10.080;2023-09-19T12:24:46;100459.13;;;20.92;100.00
16194;BME280;8204;53.582;10.080;2023-09-19T12:27:12;100460.53;;;20.94;100.00
16194;BME280;8204;53.582;10.080;2023-09-19T12:29:48;100468.28;;;20.96;100.00
16194;BME280;8204;53.582;10.080;2023-09-19T12:32:14;100446.97;;;20.96;100.00
16194;BME280;8204;53.582;10.080;2023-09-19T12:34:42;100443.59;;;21.00;100.00
16194;BME280;8204;53.582;10.080;2023-09-19T12:37:08;100460.97;;;21.03;100.00
16194;BME280;8204;53.582;10.080;2023-09-19T12:39:43;100458.66;;;21.06;100.00
16194;BME280;8204;53.582;10.080;2023-09-19T12:42:15;100444.63;;;21.11;100.00
16194;BME280;8204;53.582;10.080;2023-09-19T12:44:42;100452.63;;;21.11;100.00
16194;BME280;8204;53.582;10.080;2023-09-19T12:47:15;100449.50;;;21.14;100.00
16194;BME280;8204;53.582;10.080;2023-09-19T12:50:10;100452.84;;;21.21;100.00
16194;BME280;8204;53.582;10.080;2023-09-19T12:52:42;100443.44;;;21.29;100.00
16194;BME280;8204;53.582;10.080;2023-09-19T12:55:19;100449.81;;;21.40;100.00
16194;BME280;8204;53.582;10.080;2023-09-19T12:58:02;100433.66;;;21.46;100.00
16194;BME280;8204;53.582;10.080;2023-09-19T13:00:36;100445.63;;;21.55;100.00
16194;BME280;8204;53.582;10.080;2023-09-19T13:03:26;100451.06;;;21.60;100.00
16194;BME280;8204;53.582;10.080;2023-09-19T13:05:57;100445.59;;;21.67;100.00
16194;BME280;8204;53.582;10.080;2023-09-19T13:08:33;100448.34;;;21.72;100.00
16194;BME280;8204;53.582;10.080;2023-09-19T13:11:19;100438.03;;;21.75;100.00
16194;BME280;8204;53.582;10.080;2023-09-19T13:13:50;100437.88;;;21.82;100.00
16194;BME280;8204;53.582;10.080;2023-09-19T13:16:20;100438.78;;;21.87;100.00
16194;BME280;8204;53.582;10.080;2023-09-19T13:18:53;100449.06;;;21.95;100.00
16194;BME280;8204;53.582;10.080;2023-09-19T13:21:34;100428.06;;;21.99;100.00
16194;BME280;8204;53.582;10.080;2023-09-19T13:24:25;100434.19;;;21.99;100.00
16194;BME280;8204;53.582;10.080;2023-09-19T13:26:53;100423.59;;;22.04;100.00
16194;BME280;8204;53.582;10.080;2023-09-19T13:29:18;100412.06;;;22.15;100.00